createdAt,value
2018-04-12T00:01:47.972Z,19.80
2018-04-12T00:04:19.624Z,19.47
2018-04-12T00:06:50.286Z,21.50
2018-04-12T00:09:22.031Z,24.20
2018-04-12T00:11:52.686Z,28.23
2018-04-12T00:14:24.404Z,18.43
2018-04-12T00:16:55.877Z,24.80
2018-04-12T00:19:26.558Z,21.17
2018-04-12T00:21:57.211Z,19.53
2018-04-12T00:24:28.321Z,30.07
2018-04-12T00:26:58.964Z,24.83
2018-04-12T00:29:29.718Z,20.87
2018-04-12T00:32:00.401Z,21.17
2018-04-12T00:34:31.841Z,25.73
2018-04-12T00:37:02.574Z,19.57
2018-04-12T00:39:34.768Z,21.10
2018-04-12T00:42:05.446Z,21.03
2018-04-12T00:44:36.315Z,22.40
2018-04-12T00:47:06.994Z,22.13
2018-04-12T00:49:37.831Z,22.03
2018-04-12T00:52:08.510Z,18.97
2018-04-12T00:54:40.353Z,18.53
2018-04-12T00:57:11.006Z,17.40
2018-04-12T00:59:41.666Z,22.37
2018-04-12T01:02:12.509Z,24.70
2018-04-12T01:04:43.378Z,24.10
2018-04-12T01:07:14.050Z,24.70
2018-04-12T01:09:45.351Z,22.30
2018-04-12T01:12:16.094Z,18.70
2018-04-12T01:14:47.124Z,24.80
2018-04-12T01:17:18.958Z,22.63
2018-04-12T01:19:49.784Z,21.03
2018-04-12T01:22:21.082Z,17.27
2018-04-12T01:24:52.044Z,24.30
2018-04-12T01:27:22.710Z,24.03
2018-04-12T01:29:53.431Z,21.63
2018-04-12T01:32:24.389Z,22.33
2018-04-12T01:34:55.250Z,21.53
2018-04-12T01:37:25.923Z,21.17
2018-04-12T01:39:56.915Z,21.80
2018-04-12T01:42:28.448Z,22.10
2018-04-12T01:44:59.325Z,21.13
2018-04-12T01:48:50.080Z,20.63
2018-04-12T01:51:20.757Z,16.87
2018-04-12T01:53:51.878Z,15.77
2018-04-12T01:56:23.569Z,17.07
2018-04-12T01:58:55.017Z,15.53
2018-04-12T02:01:26.488Z,23.87
2018-04-12T02:03:57.489Z,17.73
2018-04-12T02:06:28.352Z,19.10
2018-04-12T02:08:59.091Z,20.13
2018-04-12T02:11:30.164Z,21.60
2018-04-12T02:14:01.002Z,21.33
2018-04-12T02:16:31.796Z,20.60
2018-04-12T02:19:02.943Z,19.37
2018-04-12T02:21:33.808Z,25.00
2018-04-12T02:24:04.555Z,22.30
2018-04-12T02:26:35.273Z,22.10
2018-04-12T02:29:05.990Z,19.73
2018-04-12T02:31:36.955Z,22.23
2018-04-12T02:34:07.659Z,24.23
2018-04-12T02:36:38.835Z,25.33
2018-04-12T02:39:10.830Z,22.73
2018-04-12T02:41:42.589Z,24.53
2018-04-12T02:44:14.093Z,21.47
2018-04-12T02:46:45.055Z,28.00
2018-04-12T02:49:16.062Z,23.93
2018-04-12T02:51:46.917Z,22.83
2018-04-12T02:54:17.654Z,25.17
2018-04-12T02:56:48.664Z,20.77
2018-04-12T02:59:19.355Z,21.93
2018-04-12T03:01:51.145Z,24.40
2018-04-12T03:04:21.799Z,26.50
2018-04-12T03:06:53.371Z,24.73
2018-04-12T03:09:25.132Z,26.47
2018-04-12T03:11:56.279Z,28.63
2018-04-12T03:14:27.726Z,29.83
2018-04-12T03:16:58.415Z,26.27
2018-04-12T03:19:29.500Z,33.80
2018-04-12T03:22:00.258Z,27.97
2018-04-12T03:24:30.965Z,30.60
2018-04-12T03:27:01.962Z,28.10
2018-04-12T03:29:32.763Z,31.20
2018-04-12T03:32:05.873Z,29.90
2018-04-12T03:34:36.648Z,32.60
2018-04-12T03:37:07.469Z,32.20
2018-04-12T03:39:38.628Z,30.67
2018-04-12T03:42:09.332Z,29.70
2018-04-12T03:44:40.066Z,31.93
2018-04-12T03:47:11.026Z,31.37
2018-04-12T03:49:41.753Z,34.03
2018-04-12T03:52:12.947Z,35.87
2018-04-12T03:54:43.726Z,37.63
2018-04-12T03:57:14.725Z,36.13
2018-04-12T03:59:45.566Z,33.60
2018-04-12T04:02:16.485Z,35.37
2018-04-12T04:04:48.426Z,44.67
2018-04-12T04:07:19.596Z,33.73
2018-04-12T04:09:50.288Z,34.70
2018-04-12T04:12:21.760Z,31.87
2018-04-12T04:15:01.009Z,39.47
2018-04-12T04:21:43.974Z,39.70
2018-04-12T04:24:14.807Z,34.30
2018-04-12T04:26:45.635Z,38.17
2018-04-12T04:29:16.824Z,39.67
2018-04-12T04:31:47.816Z,35.60
2018-04-12T04:34:18.492Z,38.73
2018-04-12T04:36:49.186Z,44.13
2018-04-12T04:39:19.890Z,36.50
2018-04-12T04:41:50.769Z,40.33
2018-04-12T04:44:21.740Z,37.73
2018-04-12T04:46:52.721Z,37.10
2018-04-12T04:49:24.170Z,36.40
2018-04-12T04:51:55.224Z,37.90
2018-04-12T04:54:25.947Z,45.43
2018-04-12T04:56:56.784Z,36.47
2018-04-12T04:59:27.520Z,34.23
2018-04-12T05:01:59.285Z,36.50
2018-04-12T05:04:30.409Z,43.23
2018-04-12T05:07:01.254Z,34.60
2018-04-12T05:09:35.776Z,34.97
2018-04-12T05:12:09.605Z,27.80
2018-04-12T05:14:40.613Z,50.40
2018-04-12T05:17:11.534Z,30.27
2018-04-12T05:19:42.669Z,28.90
2018-04-12T05:22:14.572Z,32.03
2018-04-12T05:24:45.614Z,26.23
2018-04-12T05:27:16.710Z,29.37
2018-04-12T05:29:48.257Z,34.43
2018-04-12T05:32:23.132Z,28.73
2018-04-12T05:34:54.664Z,34.57
2018-04-12T05:37:26.487Z,29.63
2018-04-12T05:39:58.039Z,30.37
2018-04-12T05:42:32.081Z,31.20
2018-04-12T05:45:05.212Z,31.17
2018-04-12T05:47:37.176Z,33.00
2018-04-12T05:50:07.969Z,29.83
2018-04-12T05:52:40.651Z,29.67
2018-04-12T05:55:11.506Z,33.20
2018-04-12T05:57:48.602Z,28.60
2018-04-12T06:00:21.889Z,28.50
2018-04-12T06:02:56.948Z,37.70
2018-04-12T06:05:29.698Z,28.40
2018-04-12T06:08:00.780Z,30.90
2018-04-12T06:10:31.513Z,24.73
2018-04-12T06:13:03.023Z,33.13
2018-04-12T06:15:37.532Z,27.37
2018-04-12T06:18:09.395Z,25.63
2018-04-12T06:20:40.584Z,29.77
2018-04-12T06:23:12.449Z,27.17
2018-04-12T06:25:43.580Z,30.73
2018-04-12T06:28:16.556Z,23.77
2018-04-12T06:30:47.938Z,27.63
2018-04-12T06:33:22.974Z,25.43
2018-04-12T06:35:54.324Z,27.27
2018-04-12T06:38:28.346Z,29.13
2018-04-12T06:41:09.151Z,29.63
2018-04-12T06:43:42.722Z,26.90
2018-04-12T06:46:13.780Z,26.43
2018-04-12T06:48:45.834Z,26.70
2018-04-12T06:51:18.493Z,24.40
2018-04-12T06:53:49.673Z,29.60
2018-04-12T06:56:22.541Z,26.23
2018-04-12T06:58:54.112Z,29.87
2018-04-12T07:01:30.512Z,27.37
2018-04-12T07:04:10.864Z,28.43
2018-04-12T07:06:41.640Z,26.97
2018-04-12T07:09:13.365Z,29.33
2018-04-12T07:11:44.128Z,27.23
2018-04-12T07:14:15.336Z,23.83
2018-04-12T07:16:46.051Z,24.40
2018-04-12T07:19:16.852Z,30.63
2018-04-12T07:21:47.675Z,25.30
2018-04-12T07:24:18.742Z,27.93
2018-04-12T07:26:50.861Z,23.07
2018-04-12T07:29:21.660Z,23.63
2018-04-12T07:31:52.487Z,24.43
2018-04-12T07:34:24.644Z,22.57
2018-04-12T07:36:56.459Z,25.50
2018-04-12T07:39:27.261Z,23.47
2018-04-12T07:41:58.177Z,26.13
2018-04-12T07:44:29.989Z,25.87
2018-04-12T07:47:01.061Z,22.93
2018-04-12T07:49:31.997Z,26.27
2018-04-12T07:52:02.729Z,26.57
2018-04-12T07:54:34.276Z,26.13
2018-04-12T07:57:05.352Z,30.87
2018-04-12T07:59:37.056Z,23.10
2018-04-12T08:02:08.396Z,24.07
2018-04-12T08:04:39.941Z,21.13
2018-04-12T08:07:10.889Z,23.03
2018-04-12T08:09:41.780Z,23.63
2018-04-12T08:12:13.388Z,22.83
2018-04-12T08:14:49.226Z,25.87
2018-04-12T08:17:20.265Z,24.83
2018-04-12T08:19:51.225Z,26.47
2018-04-12T08:22:22.889Z,25.30
2018-04-12T08:24:53.646Z,28.40
2018-04-12T08:27:25.216Z,25.57
2018-04-12T08:29:57.182Z,28.10
2018-04-12T08:32:27.911Z,23.53
2018-04-12T08:34:58.739Z,21.87
2018-04-12T08:37:29.501Z,25.43
2018-04-12T08:40:00.221Z,26.10
2018-04-12T08:42:30.959Z,26.40
2018-04-12T08:45:01.988Z,28.30
2018-04-12T08:47:33.814Z,28.63
2018-04-12T08:50:05.529Z,26.93
2018-04-12T08:52:36.283Z,25.90
2018-04-12T08:55:07.324Z,24.33
2018-04-12T08:57:38.052Z,24.30
2018-04-12T09:00:09.141Z,26.23
2018-04-12T09:02:39.901Z,27.07
2018-04-12T09:05:11.379Z,27.53
2018-04-12T09:07:42.386Z,26.03
2018-04-12T09:10:13.239Z,29.43
2018-04-12T09:12:44.146Z,26.67
2018-04-12T09:15:15.291Z,29.83
2018-04-12T09:17:46.104Z,29.47
2018-04-12T09:20:17.695Z,30.30
2018-04-12T09:22:48.474Z,27.83
2018-04-12T09:25:19.202Z,25.90
2018-04-12T09:27:50.309Z,28.27
2018-04-12T09:30:21.167Z,26.70
2018-04-12T09:32:51.881Z,28.70
2018-04-12T09:35:22.604Z,28.70
2018-04-12T09:37:53.314Z,25.17
2018-04-12T09:40:25.090Z,23.23
2018-04-12T09:42:55.833Z,29.20
2018-04-12T09:45:26.930Z,28.90
2018-04-12T09:47:57.975Z,23.57
2018-04-12T09:50:29.836Z,25.67
2018-04-12T09:53:01.298Z,28.70
2018-04-12T09:55:34.695Z,26.77
2018-04-12T09:58:05.585Z,25.30
2018-04-12T10:00:36.590Z,26.63
2018-04-12T10:03:11.416Z,23.67
2018-04-12T10:05:46.351Z,25.57
2018-04-12T10:08:21.099Z,26.83
2018-04-12T10:10:52.233Z,24.43
2018-04-12T10:13:23.246Z,36.60
2018-04-12T10:15:55.309Z,25.60
2018-04-12T10:18:26.797Z,25.23
2018-04-12T10:20:57.976Z,22.57
2018-04-12T10:23:28.739Z,26.93
2018-04-12T10:26:00.419Z,25.40
2018-04-12T10:28:31.462Z,25.83
2018-04-12T10:31:02.467Z,24.80
2018-04-12T10:33:33.997Z,24.40
2018-04-12T10:36:05.165Z,23.07
2018-04-12T10:38:36.656Z,23.53
2018-04-12T10:41:07.394Z,24.87
2018-04-12T10:43:38.430Z,23.20
2018-04-12T10:46:09.282Z,25.60
2018-04-12T10:48:40.164Z,23.23
2018-04-12T10:51:12.361Z,25.67
2018-04-12T10:53:43.928Z,23.13
2018-04-12T10:56:14.782Z,23.57
2018-04-12T10:58:46.102Z,23.43
2018-04-12T11:01:17.193Z,22.43
2018-04-12T11:03:47.934Z,26.10
2018-04-12T11:06:19.972Z,20.93
2018-04-12T11:08:51.479Z,22.43
2018-04-12T11:11:22.212Z,21.73
2018-04-12T11:13:53.036Z,21.80
2018-04-12T11:16:24.226Z,20.80
2018-04-12T11:18:54.970Z,22.70
2018-04-12T11:21:25.902Z,26.03
2018-04-12T11:23:56.938Z,24.80
2018-04-12T11:26:28.021Z,22.23
2018-04-12T11:28:58.800Z,23.97
2018-04-12T11:31:29.851Z,23.77
2018-04-12T11:34:00.906Z,23.53
2018-04-12T11:36:32.800Z,23.83
2018-04-12T11:39:03.813Z,23.20
2018-04-12T11:41:34.622Z,21.57
2018-04-12T11:44:05.364Z,23.93
2018-04-12T11:46:36.533Z,21.07
2018-04-12T11:49:08.200Z,21.93
2018-04-12T11:51:38.971Z,26.00
2018-04-12T11:54:10.298Z,24.63
2018-04-12T11:56:41.097Z,24.10
2018-04-12T11:59:21.366Z,25.73
2018-04-12T12:01:59.230Z,24.70
2018-04-12T12:04:29.962Z,22.40
2018-04-12T12:07:01.018Z,21.47
2018-04-12T12:09:32.080Z,21.20
2018-04-12T12:12:03.592Z,22.43
2018-04-12T12:14:35.131Z,23.27
2018-04-12T12:17:06.013Z,22.33
2018-04-12T12:19:36.715Z,25.57
2018-04-12T12:22:08.102Z,25.87
2018-04-12T12:24:39.647Z,22.67
2018-04-12T12:27:10.668Z,24.07
2018-04-12T12:29:41.378Z,22.30
2018-04-12T12:32:12.097Z,27.23
2018-04-12T12:34:42.838Z,26.83
2018-04-12T12:37:13.746Z,26.20
2018-04-12T12:39:45.219Z,24.47
2018-04-12T12:42:16.337Z,25.17
2018-04-12T12:44:47.054Z,27.20
2018-04-12T12:47:18.524Z,23.53
2018-04-12T12:49:49.558Z,23.97
2018-04-12T12:52:20.314Z,28.13
2018-04-12T12:54:51.023Z,30.57
2018-04-12T12:57:23.171Z,26.80
2018-04-12T12:59:54.812Z,24.07
2018-04-12T13:02:26.675Z,31.03
2018-04-12T13:04:58.254Z,25.03
2018-04-12T13:07:29.306Z,23.17
2018-04-12T13:10:00.366Z,29.17
2018-04-12T13:12:31.230Z,31.40
2018-04-12T13:15:02.021Z,25.83
2018-04-12T13:17:33.176Z,26.53
2018-04-12T13:20:03.969Z,24.40
2018-04-12T13:22:34.719Z,21.93
2018-04-12T13:25:06.699Z,26.37
2018-04-12T13:27:37.756Z,26.57
2018-04-12T13:30:08.526Z,28.03
2018-04-12T13:32:40.829Z,21.63
2018-04-12T13:35:12.298Z,25.30
2018-04-12T13:37:44.093Z,25.57
2018-04-12T13:40:14.806Z,22.27
2018-04-12T13:42:46.524Z,23.43
2018-04-12T13:45:18.322Z,21.43
2018-04-12T13:47:49.233Z,23.90
2018-04-12T13:50:19.986Z,22.47
2018-04-12T13:52:51.012Z,24.33
2018-04-12T13:55:21.744Z,24.93
2018-04-12T13:57:52.454Z,26.93
2018-04-12T14:00:23.189Z,20.50
2018-04-12T14:02:54.276Z,24.77
2018-04-12T14:05:25.024Z,23.53
2018-04-12T14:07:56.072Z,24.80
2018-04-12T14:10:26.887Z,23.50
2018-04-12T14:12:57.766Z,23.37
2018-04-12T14:15:29.356Z,26.73
2018-04-12T14:18:00.141Z,23.17
2018-04-12T14:20:30.926Z,25.57
2018-04-12T14:23:01.790Z,21.83
2018-04-12T14:25:32.561Z,21.17
2018-04-12T14:28:03.580Z,25.33
2018-04-12T14:30:34.287Z,28.90
2018-04-12T14:33:05.328Z,23.77
2018-04-12T14:35:36.329Z,24.40
2018-04-12T14:38:07.146Z,21.73
2018-04-12T14:40:38.613Z,23.93
2018-04-12T14:43:10.102Z,19.00
2018-04-12T14:45:40.790Z,28.43
2018-04-12T14:48:12.789Z,25.00
2018-04-12T14:50:43.536Z,18.53
2018-04-12T14:53:14.382Z,17.93
2018-04-12T14:55:45.163Z,20.20
2018-04-12T14:58:16.996Z,18.60
2018-04-12T15:00:48.449Z,22.47
2018-04-12T15:03:20.143Z,18.57
2018-04-12T15:05:51.171Z,19.50
2018-04-12T15:08:21.870Z,24.13
2018-04-12T15:10:52.611Z,20.73
2018-04-12T15:13:23.660Z,19.13
2018-04-12T15:15:55.314Z,19.10
2018-04-12T15:18:26.618Z,18.17
2018-04-12T15:20:57.626Z,20.73
2018-04-12T15:23:28.626Z,22.60
2018-04-12T15:26:00.149Z,20.10
2018-04-12T15:28:31.200Z,22.90
2018-04-12T15:31:02.711Z,20.17
2018-04-12T15:33:33.853Z,17.80
2018-04-12T15:36:05.071Z,21.90
2018-04-12T15:38:35.852Z,18.53
2018-04-12T15:41:06.649Z,21.53
2018-04-12T15:43:37.409Z,22.93
2018-04-12T15:46:08.168Z,23.47
2018-04-12T15:48:39.260Z,20.77
2018-04-12T15:51:09.986Z,18.60
2018-04-12T15:53:40.815Z,21.23
2018-04-12T15:56:12.720Z,24.80
2018-04-12T15:58:43.875Z,19.30
2018-04-12T16:01:14.777Z,22.23
2018-04-12T16:03:46.944Z,23.93
2018-04-12T16:06:17.598Z,22.73
2018-04-12T16:08:48.388Z,26.37
2018-04-12T16:11:20.118Z,23.33
2018-04-12T16:13:50.867Z,24.10
2018-04-12T16:16:21.524Z,23.23
2018-04-12T16:18:53.537Z,23.40
2018-04-12T16:21:25.119Z,24.77
2018-04-12T16:23:56.742Z,24.80
2018-04-12T16:26:27.962Z,25.53
2018-04-12T16:28:59.150Z,25.00
2018-04-12T16:31:30.007Z,27.80
2018-04-12T16:34:02.076Z,24.17
2018-04-12T16:36:33.400Z,24.60
2018-04-12T16:39:04.731Z,23.27
2018-04-12T16:41:35.911Z,28.47
2018-04-12T16:44:07.383Z,23.93
2018-04-12T16:46:38.485Z,28.97
2018-04-12T16:49:09.582Z,25.43
2018-04-12T16:51:40.396Z,26.60
2018-04-12T16:54:11.074Z,26.27
2018-04-12T16:56:41.823Z,27.10
2018-04-12T16:59:13.068Z,26.37
2018-04-12T17:01:44.538Z,30.73
2018-04-12T17:04:16.127Z,24.37
2018-04-12T17:06:46.825Z,37.83
2018-04-12T17:09:18.607Z,32.27
2018-04-12T17:11:49.282Z,27.67
2018-04-12T17:14:20.049Z,25.93
2018-04-12T17:16:52.097Z,24.73
2018-04-12T17:19:23.032Z,29.63
2018-04-12T17:21:53.821Z,30.20
2018-04-12T17:24:24.870Z,30.27
2018-04-12T17:26:55.662Z,29.93
2018-04-12T17:29:26.751Z,26.87
2018-04-12T17:31:57.403Z,31.33
2018-04-12T17:34:28.338Z,29.47
2018-04-12T17:36:59.312Z,29.30
2018-04-12T17:39:30.056Z,31.07
2018-04-12T17:42:01.914Z,30.47
2018-04-12T17:44:33.141Z,29.80
2018-04-12T17:47:03.899Z,31.33
2018-04-12T17:49:35.110Z,31.17
2018-04-12T17:52:05.859Z,26.87
2018-04-12T17:54:37.478Z,26.80
2018-04-12T17:57:08.464Z,32.97
2018-04-12T17:59:40.235Z,33.07
2018-04-12T18:02:10.948Z,29.77
2018-04-12T18:04:42.778Z,30.53
2018-04-12T18:07:13.436Z,29.77
2018-04-12T18:09:45.142Z,30.03
2018-04-12T18:12:16.156Z,26.87
2018-04-12T18:14:47.765Z,32.27
2018-04-12T18:17:18.475Z,29.60
2018-04-12T18:19:49.553Z,27.60
2018-04-12T18:22:20.284Z,30.00
2018-04-12T18:24:51.870Z,31.43
2018-04-12T18:27:23.002Z,24.67
2018-04-12T18:29:54.850Z,30.67
2018-04-12T18:32:26.302Z,29.57
2018-04-12T18:34:57.403Z,36.80
2018-04-12T18:37:28.039Z,34.20
2018-04-12T18:39:59.012Z,30.07
2018-04-12T18:42:31.036Z,28.37
2018-04-12T18:45:01.681Z,30.80
2018-04-12T18:47:32.346Z,28.40
2018-04-12T18:50:04.415Z,27.77
2018-04-12T18:52:35.187Z,34.87
2018-04-12T18:55:06.163Z,28.50
2018-04-12T18:57:38.023Z,28.27
2018-04-12T19:00:10.024Z,29.63
2018-04-12T19:02:40.622Z,28.47
2018-04-12T19:05:12.145Z,28.30
2018-04-12T19:07:42.772Z,28.63
2018-04-12T19:10:13.430Z,24.93
2018-04-12T19:12:44.081Z,28.77
2018-04-12T19:15:14.802Z,31.77
2018-04-12T19:17:45.521Z,25.60
2018-04-12T19:20:16.382Z,29.57
2018-04-12T19:22:48.421Z,27.70
2018-04-12T19:25:19.047Z,30.93
2018-04-12T19:27:49.674Z,32.63
2018-04-12T19:30:20.414Z,31.73
2018-04-12T19:32:51.048Z,31.37
2018-04-12T19:35:22.424Z,32.67
2018-04-12T19:37:53.050Z,29.70
2018-04-12T19:40:24.462Z,26.97
2018-04-12T19:42:56.650Z,30.07
2018-04-12T19:45:28.382Z,25.80
2018-04-12T19:47:59.028Z,31.53
2018-04-12T19:50:30.193Z,26.77
2018-04-12T19:53:01.171Z,34.03
2018-04-12T19:55:32.066Z,26.00
2018-04-12T19:58:05.172Z,27.13
2018-04-12T20:00:36.110Z,28.13
2018-04-12T20:03:06.747Z,31.63
2018-04-12T20:05:37.414Z,29.43
2018-04-12T20:08:08.176Z,27.23
2018-04-12T20:10:39.559Z,28.93
2018-04-12T20:13:10.215Z,26.70
2018-04-12T20:15:41.007Z,27.93
2018-04-12T20:18:12.074Z,31.40
2018-04-12T20:20:42.794Z,30.20
2018-04-12T20:23:13.441Z,25.43
2018-04-12T20:25:44.480Z,30.67
2018-04-12T20:28:15.207Z,27.47
2018-04-12T20:30:46.255Z,31.10
2018-04-12T20:33:16.864Z,29.77
2018-04-12T20:35:48.005Z,26.80
2018-04-12T20:38:19.487Z,28.60
2018-04-12T20:40:50.691Z,28.13
2018-04-12T20:43:21.440Z,28.40
2018-04-12T20:45:52.121Z,34.40
2018-04-12T20:48:23.022Z,28.43
2018-04-12T20:50:53.652Z,31.67
2018-04-12T20:53:24.307Z,28.50
2018-04-12T20:55:55.092Z,27.17
2018-04-12T20:58:26.850Z,28.70
2018-04-12T21:00:58.576Z,28.80
2018-04-12T21:03:29.217Z,30.00
2018-04-12T21:06:00.423Z,30.33
2018-04-12T21:08:31.128Z,29.40
2018-04-12T21:11:02.033Z,30.03
2018-04-12T21:13:33.008Z,30.43
2018-04-12T21:16:03.669Z,32.00
2018-04-12T21:18:34.293Z,33.23
2018-04-12T21:21:05.491Z,31.63
2018-04-12T21:23:36.914Z,31.33
2018-04-12T21:26:07.699Z,31.50
2018-04-12T21:28:38.794Z,29.13
2018-04-12T21:31:09.703Z,28.53
2018-04-12T21:33:40.418Z,29.13
2018-04-12T21:36:11.855Z,31.17
2018-04-12T21:38:42.454Z,31.17
2018-04-12T21:41:13.075Z,34.87
2018-04-12T21:43:44.055Z,29.77
2018-04-12T21:46:14.662Z,32.27
2018-04-12T21:48:45.354Z,29.57
2018-04-12T21:51:16.490Z,28.60
2018-04-12T21:53:47.141Z,27.70
2018-04-12T21:56:17.830Z,29.57
2018-04-12T21:58:48.726Z,27.80
2018-04-12T22:01:19.638Z,30.47
2018-04-12T22:03:50.567Z,30.60
2018-04-12T22:06:21.948Z,28.03
2018-04-12T22:08:52.844Z,30.47
2018-04-12T22:11:24.132Z,32.63
2018-04-12T22:13:55.494Z,27.77
2018-04-12T22:16:27.459Z,30.00
2018-04-12T22:18:59.147Z,33.83
2018-04-12T22:21:30.244Z,28.20
2018-04-12T22:24:01.510Z,32.97
2018-04-12T22:26:33.177Z,32.20
2018-04-12T22:29:04.104Z,29.37
2018-04-12T22:31:36.377Z,31.90
2018-04-12T22:34:07.461Z,28.83
2018-04-12T22:36:38.656Z,32.10
2018-04-12T22:39:11.089Z,29.33
2018-04-12T22:41:42.436Z,28.67
2018-04-12T22:44:13.340Z,34.87
2018-04-12T22:46:45.484Z,35.57
2018-04-12T22:49:17.181Z,30.07
2018-04-12T22:51:48.244Z,29.20
2018-04-12T22:54:19.136Z,29.67
2018-04-12T22:56:50.073Z,31.77
2018-04-12T22:59:21.387Z,36.10
2018-04-12T23:01:53.344Z,30.17
2018-04-12T23:04:25.131Z,30.03
2018-04-12T23:07:58.782Z,29.77
2018-04-12T23:10:30.397Z,27.10
2018-04-12T23:13:01.872Z,29.50
2018-04-12T23:15:32.911Z,31.83
2018-04-12T23:18:04.705Z,31.30
2018-04-12T23:20:36.155Z,34.90
2018-04-12T23:23:07.219Z,31.40
2018-04-12T23:25:38.987Z,33.27
2018-04-12T23:28:10.276Z,28.57
2018-04-12T23:30:41.283Z,29.30
2018-04-12T23:33:12.384Z,29.60
2018-04-12T23:35:43.877Z,31.50
2018-04-12T23:38:15.028Z,28.90
2018-04-12T23:40:46.169Z,31.53
2018-04-12T23:43:17.968Z,33.97
2018-04-12T23:45:49.029Z,31.30
2018-04-12T23:48:21.054Z,34.03
2018-04-12T23:50:52.565Z,32.10
2018-04-12T23:53:23.612Z,31.27
2018-04-12T23:55:54.680Z,31.97
2018-04-12T23:58:26.080Z,32.90
